KOLE/OLE METAR and TAF weather

Enter ICAO airport designator
Station Type Date Time Source
KOLE METAR 2019/06/17 14:35 UTC NOAA

KOLE 171435Z AUTO 06004KT 1 1/2SM BR OVC001 13/13 A3003 RMK AO2 VIS 1/2V3


Station Type Date Time Source
KOLE Decoded METAR 2019/06/17 14:35 UTC NOAA

Olean Municipal, NY, United States (KOLE) 42-14N 078-22W
Jun 17, 2019 - 10:35 AM EDT / 2019.06.17 1435 UTC
Wind: from the ENE (060 degrees) at 5 MPH (4 KT):0
Visibility: 1 1/2 mile(s):0
Sky conditions: overcast
Weather: mist
Temperature: 55 F (13 C)
Dew Point: 55 F (13 C)
Relative Humidity: 100%
Pressure (altimeter): 30.03 in. Hg (1016 hPa)
ob: KOLE 171435Z AUTO 06004KT 1 1/2SM BR OVC001 13/13 A3003 RMK AO2 VIS 1/2V3
cycle: 14

Station Type Date Time Source
KOLE TAF UTC NOAA

Error!

Example: see airport list